sensor_id;sensor_type;location;lat;lon;timestamp;temperature;humidity
69626;DHT22;56847;51.984;5.088;2024-03-08T00:00:11;7.40;69.40
69626;DHT22;56847;51.984;5.088;2024-03-08T00:02:44;7.30;69.40
69626;DHT22;56847;51.984;5.088;2024-03-08T00:05:12;7.30;69.40
69626;DHT22;56847;51.984;5.088;2024-03-08T00:07:41;7.30;69.40
69626;DHT22;56847;51.984;5.088;2024-03-08T00:10:10;7.30;69.40
69626;DHT22;56847;51.984;5.088;2024-03-08T00:12:40;7.20;69.40
69626;DHT22;56847;51.984;5.088;2024-03-08T00:15:14;7.20;69.40
69626;DHT22;56847;51.984;5.088;2024-03-08T00:17:44;7.20;69.40
69626;DHT22;56847;51.984;5.088;2024-03-08T00:20:12;7.20;69.40
69626;DHT22;56847;51.984;5.088;2024-03-08T00:22:41;7.20;69.40
69626;DHT22;56847;51.984;5.088;2024-03-08T00:25:08;7.10;69.50
69626;DHT22;56847;51.984;5.088;2024-03-08T00:27:41;7.10;69.50
69626;DHT22;56847;51.984;5.088;2024-03-08T00:30:09;7.10;69.40
69626;DHT22;56847;51.984;5.088;2024-03-08T00:32:36;7.10;69.40
69626;DHT22;56847;51.984;5.088;2024-03-08T00:35:04;7.10;69.40
69626;DHT22;56847;51.984;5.088;2024-03-08T00:37:34;7.10;69.40
69626;DHT22;56847;51.984;5.088;2024-03-08T00:40:03;7.00;69.40
69626;DHT22;56847;51.984;5.088;2024-03-08T00:42:33;7.00;69.30
69626;DHT22;56847;51.984;5.088;2024-03-08T00:45:00;7.00;69.30
69626;DHT22;56847;51.984;5.088;2024-03-08T00:47:28;7.00;69.30
69626;DHT22;56847;51.984;5.088;2024-03-08T00:49:55;6.90;69.30
69626;DHT22;56847;51.984;5.088;2024-03-08T00:52:24;6.90;69.40
69626;DHT22;56847;51.984;5.088;2024-03-08T00:54:51;6.90;69.40
69626;DHT22;56847;51.984;5.088;2024-03-08T00:57:18;6.90;69.40
69626;DHT22;56847;51.984;5.088;2024-03-08T00:59:45;6.90;69.40
69626;DHT22;56847;51.984;5.088;2024-03-08T01:02:12;6.90;69.40
69626;DHT22;56847;51.984;5.088;2024-03-08T01:04:39;6.80;69.50
69626;DHT22;56847;51.984;5.088;2024-03-08T01:07:07;6.80;69.40
69626;DHT22;56847;51.984;5.088;2024-03-08T01:09:34;6.80;69.40
69626;DHT22;56847;51.984;5.088;2024-03-08T01:12:01;6.80;69.40
69626;DHT22;56847;51.984;5.088;2024-03-08T01:14:28;6.80;69.40
69626;DHT22;56847;51.984;5.088;2024-03-08T01:16:56;6.80;69.30
69626;DHT22;56847;51.984;5.088;2024-03-08T01:19:24;6.80;69.20
69626;DHT22;56847;51.984;5.088;2024-03-08T01:21:51;6.70;69.20
69626;DHT22;56847;51.984;5.088;2024-03-08T01:24:19;6.70;69.20
69626;DHT22;56847;51.984;5.088;2024-03-08T01:26:46;6.70;69.20
69626;DHT22;56847;51.984;5.088;2024-03-08T01:29:14;6.70;69.20
69626;DHT22;56847;51.984;5.088;2024-03-08T01:31:41;6.70;69.20
69626;DHT22;56847;51.984;5.088;2024-03-08T01:34:08;6.70;69.20
69626;DHT22;56847;51.984;5.088;2024-03-08T01:36:35;6.70;69.30
69626;DHT22;56847;51.984;5.088;2024-03-08T01:39:04;6.60;69.20
69626;DHT22;56847;51.984;5.088;2024-03-08T01:41:35;6.60;69.30
69626;DHT22;56847;51.984;5.088;2024-03-08T01:44:03;6.60;69.30
69626;DHT22;56847;51.984;5.088;2024-03-08T01:46:30;6.60;69.30
69626;DHT22;56847;51.984;5.088;2024-03-08T01:48:59;6.50;69.20
69626;DHT22;56847;51.984;5.088;2024-03-08T01:51:28;6.50;69.30
69626;DHT22;56847;51.984;5.088;2024-03-08T01:53:56;6.50;69.30
69626;DHT22;56847;51.984;5.088;2024-03-08T01:56:27;6.50;69.30
69626;DHT22;56847;51.984;5.088;2024-03-08T01:58:54;6.50;69.30
69626;DHT22;56847;51.984;5.088;2024-03-08T02:01:21;6.50;69.30
69626;DHT22;56847;51.984;5.088;2024-03-08T02:03:49;6.50;69.30
69626;DHT22;56847;51.984;5.088;2024-03-08T02:06:16;6.40;69.40
69626;DHT22;56847;51.984;5.088;2024-03-08T02:08:45;6.40;69.40
69626;DHT22;56847;51.984;5.088;2024-03-08T02:11:12;6.40;69.30
69626;DHT22;56847;51.984;5.088;2024-03-08T02:13:40;6.40;69.30
69626;DHT22;56847;51.984;5.088;2024-03-08T02:16:07;6.40;69.30
69626;DHT22;56847;51.984;5.088;2024-03-08T03:24:56;5.70;69.80
69626;DHT22;56847;51.984;5.088;2024-03-08T03:27:25;5.70;69.80
69626;DHT22;56847;51.984;5.088;2024-03-08T03:29:51;5.70;69.80
69626;DHT22;56847;51.984;5.088;2024-03-08T03:32:18;5.70;69.80
69626;DHT22;56847;51.984;5.088;2024-03-08T03:34:45;5.70;69.70
69626;DHT22;56847;51.984;5.088;2024-03-08T03:37:12;5.70;69.70
69626;DHT22;56847;51.984;5.088;2024-03-08T03:39:41;5.70;69.60
69626;DHT22;56847;51.984;5.088;2024-03-08T03:42:19;5.70;69.60
69626;DHT22;56847;51.984;5.088;2024-03-08T03:44:47;5.70;69.50
69626;DHT22;56847;51.984;5.088;2024-03-08T03:47:15;5.70;69.50
69626;DHT22;56847;51.984;5.088;2024-03-08T03:49:42;5.70;69.60
69626;DHT22;56847;51.984;5.088;2024-03-08T03:52:09;5.70;69.60
69626;DHT22;56847;51.984;5.088;2024-03-08T03:54:37;5.70;69.50
69626;DHT22;56847;51.984;5.088;2024-03-08T03:57:04;5.70;69.50
69626;DHT22;56847;51.984;5.088;2024-03-08T03:59:31;5.70;69.50
69626;DHT22;56847;51.984;5.088;2024-03-08T04:01:58;5.70;69.50
69626;DHT22;56847;51.984;5.088;2024-03-08T04:04:25;5.70;69.50
69626;DHT22;56847;51.984;5.088;2024-03-08T04:06:52;5.70;69.50
69626;DHT22;56847;51.984;5.088;2024-03-08T04:09:19;5.70;69.50
69626;DHT22;56847;51.984;5.088;2024-03-08T04:11:46;5.70;69.50
69626;DHT22;56847;51.984;5.088;2024-03-08T04:14:15;5.60;69.40
69626;DHT22;56847;51.984;5.088;2024-03-08T04:16:42;5.60;69.40
69626;DHT22;56847;51.984;5.088;2024-03-08T04:19:09;5.60;69.40
69626;DHT22;56847;51.984;5.088;2024-03-08T04:21:36;5.60;69.50
69626;DHT22;56847;51.984;5.088;2024-03-08T04:24:03;5.60;69.40
69626;DHT22;56847;51.984;5.088;2024-03-08T04:26:31;5.60;69.40
69626;DHT22;56847;51.984;5.088;2024-03-08T04:28:58;5.60;69.40
69626;DHT22;56847;51.984;5.088;2024-03-08T04:31:25;5.60;69.50
69626;DHT22;56847;51.984;5.088;2024-03-08T04:33:53;5.60;69.40
69626;DHT22;56847;51.984;5.088;2024-03-08T04:36:20;5.60;69.30
69626;DHT22;56847;51.984;5.088;2024-03-08T04:38:48;5.60;69.40
69626;DHT22;56847;51.984;5.088;2024-03-08T04:41:15;5.60;69.30
69626;DHT22;56847;51.984;5.088;2024-03-08T04:43:42;5.60;69.30
69626;DHT22;56847;51.984;5.088;2024-03-08T04:46:09;5.60;69.30
69626;DHT22;56847;51.984;5.088;2024-03-08T04:48:36;5.50;69.40
69626;DHT22;56847;51.984;5.088;2024-03-08T04:51:04;5.50;69.30
69626;DHT22;56847;51.984;5.088;2024-03-08T04:53:31;5.50;69.40
69626;DHT22;56847;51.984;5.088;2024-03-08T04:56:00;5.50;69.40
69626;DHT22;56847;51.984;5.088;2024-03-08T04:58:27;5.50;69.30
69626;DHT22;56847;51.984;5.088;2024-03-08T05:00:55;5.50;69.40
69626;DHT22;56847;51.984;5.088;2024-03-08T05:03:22;5.50;69.40
69626;DHT22;56847;51.984;5.088;2024-03-08T05:05:53;5.50;69.40
69626;DHT22;56847;51.984;5.088;2024-03-08T05:08:20;5.50;69.30
69626;DHT22;56847;51.984;5.088;2024-03-08T05:10:47;5.40;69.40
69626;DHT22;56847;51.984;5.088;2024-03-08T05:13:14;5.40;69.30
69626;DHT22;56847;51.984;5.088;2024-03-08T05:15:41;5.40;69.30
69626;DHT22;56847;51.984;5.088;2024-03-08T05:18:08;5.40;69.40
69626;DHT22;56847;51.984;5.088;2024-03-08T05:20:38;5.40;69.40
69626;DHT22;56847;51.984;5.088;2024-03-08T05:23:06;5.40;69.40
69626;DHT22;56847;51.984;5.088;2024-03-08T05:25:33;5.40;69.40
69626;DHT22;56847;51.984;5.088;2024-03-08T05:28:00;5.40;69.40
69626;DHT22;56847;51.984;5.088;2024-03-08T05:30:27;5.40;69.50
69626;DHT22;56847;51.984;5.088;2024-03-08T05:32:55;5.40;69.40
69626;DHT22;56847;51.984;5.088;2024-03-08T05:35:23;5.40;69.50
69626;DHT22;56847;51.984;5.088;2024-03-08T05:37:51;5.40;69.40
69626;DHT22;56847;51.984;5.088;2024-03-08T05:40:18;5.40;69.50
69626;DHT22;56847;51.984;5.088;2024-03-08T05:42:49;5.40;69.40
69626;DHT22;56847;51.984;5.088;2024-03-08T05:45:16;5.40;69.50
69626;DHT22;56847;51.984;5.088;2024-03-08T05:47:43;5.30;69.50
69626;DHT22;56847;51.984;5.088;2024-03-08T05:50:10;5.30;69.60
69626;DHT22;56847;51.984;5.088;2024-03-08T05:52:38;5.30;69.50
69626;DHT22;56847;51.984;5.088;2024-03-08T05:55:05;5.40;69.60
69626;DHT22;56847;51.984;5.088;2024-03-08T05:57:34;5.30;69.50
69626;DHT22;56847;51.984;5.088;2024-03-08T06:00:05;5.30;69.60
69626;DHT22;56847;51.984;5.088;2024-03-08T06:02:38;5.30;69.60
69626;DHT22;56847;51.984;5.088;2024-03-08T06:05:11;5.40;69.70
69626;DHT22;56847;51.984;5.088;2024-03-08T06:07:38;5.30;69.60
69626;DHT22;56847;51.984;5.088;2024-03-08T06:10:11;5.30;69.70
69626;DHT22;56847;51.984;5.088;2024-03-08T06:12:39;5.30;69.70
69626;DHT22;56847;51.984;5.088;2024-03-08T06:15:08;5.30;69.70
69626;DHT22;56847;51.984;5.088;2024-03-08T06:17:36;5.30;69.70
69626;DHT22;56847;51.984;5.088;2024-03-08T06:20:04;5.30;69.80
69626;DHT22;56847;51.984;5.088;2024-03-08T06:22:40;5.30;69.70
69626;DHT22;56847;51.984;5.088;2024-03-08T06:25:13;5.30;69.70
69626;DHT22;56847;51.984;5.088;2024-03-08T06:27:53;5.30;69.70
69626;DHT22;56847;51.984;5.088;2024-03-08T06:30:20;5.40;69.60
69626;DHT22;56847;51.984;5.088;2024-03-08T06:32:48;5.40;69.60
69626;DHT22;56847;51.984;5.088;2024-03-08T06:35:16;5.40;69.70
69626;DHT22;56847;51.984;5.088;2024-03-08T06:37:43;5.40;69.60
69626;DHT22;56847;51.984;5.088;2024-03-08T06:40:11;5.40;69.60
69626;DHT22;56847;51.984;5.088;2024-03-08T06:42:41;5.40;69.60
69626;DHT22;56847;51.984;5.088;2024-03-08T06:45:08;5.40;69.60
69626;DHT22;56847;51.984;5.088;2024-03-08T06:47:37;5.40;69.60
69626;DHT22;56847;51.984;5.088;2024-03-08T06:50:04;5.50;69.60
69626;DHT22;56847;51.984;5.088;2024-03-08T06:52:32;5.50;69.60
69626;DHT22;56847;51.984;5.088;2024-03-08T06:55:00;5.50;69.50
69626;DHT22;56847;51.984;5.088;2024-03-08T06:57:28;5.50;69.50
69626;DHT22;56847;51.984;5.088;2024-03-08T06:59:56;5.60;69.50
69626;DHT22;56847;51.984;5.088;2024-03-08T07:02:23;5.60;69.40
69626;DHT22;56847;51.984;5.088;2024-03-08T07:04:54;5.60;69.40
69626;DHT22;56847;51.984;5.088;2024-03-08T07:07:21;5.70;69.30
69626;DHT22;56847;51.984;5.088;2024-03-08T07:09:48;5.70;69.10
69626;DHT22;56847;51.984;5.088;2024-03-08T07:12:16;5.70;69.20
69626;DHT22;56847;51.984;5.088;2024-03-08T07:14:44;5.80;69.10
69626;DHT22;56847;51.984;5.088;2024-03-08T07:17:12;5.80;69.10
69626;DHT22;56847;51.984;5.088;2024-03-08T07:19:39;5.80;69.10
69626;DHT22;56847;51.984;5.088;2024-03-08T07:22:06;5.90;69.00
69626;DHT22;56847;51.984;5.088;2024-03-08T07:24:36;6.00;69.10
69626;DHT22;56847;51.984;5.088;2024-03-08T07:27:06;6.00;69.00
69626;DHT22;56847;51.984;5.088;2024-03-08T07:29:33;6.10;69.00
69626;DHT22;56847;51.984;5.088;2024-03-08T07:32:01;6.20;68.70
69626;DHT22;56847;51.984;5.088;2024-03-08T07:34:38;6.20;68.70
69626;DHT22;56847;51.984;5.088;2024-03-08T07:37:06;6.30;68.60
69626;DHT22;56847;51.984;5.088;2024-03-08T07:39:38;6.30;68.60
69626;DHT22;56847;51.984;5.088;2024-03-08T07:42:08;6.40;68.20
69626;DHT22;56847;51.984;5.088;2024-03-08T07:44:35;6.40;67.90
69626;DHT22;56847;51.984;5.088;2024-03-08T07:47:02;6.40;68.00
69626;DHT22;56847;51.984;5.088;2024-03-08T07:49:30;6.50;67.90
69626;DHT22;56847;51.984;5.088;2024-03-08T07:51:57;6.50;68.00
69626;DHT22;56847;51.984;5.088;2024-03-08T07:54:24;6.60;67.60
69626;DHT22;56847;51.984;5.088;2024-03-08T07:56:53;6.60;67.70
69626;DHT22;56847;51.984;5.088;2024-03-08T07:59:20;6.70;67.60
69626;DHT22;56847;51.984;5.088;2024-03-08T08:01:48;6.80;67.50
69626;DHT22;56847;51.984;5.088;2024-03-08T08:04:15;6.90;67.40
69626;DHT22;56847;51.984;5.088;2024-03-08T08:06:44;6.90;67.50
69626;DHT22;56847;51.984;5.088;2024-03-08T08:09:11;7.00;67.20
69626;DHT22;56847;51.984;5.088;2024-03-08T08:11:41;7.10;66.70
69626;DHT22;56847;51.984;5.088;2024-03-08T08:14:10;7.10;66.00
69626;DHT22;56847;51.984;5.088;2024-03-08T08:16:37;7.10;66.50
69626;DHT22;56847;51.984;5.088;2024-03-08T08:19:04;7.20;66.30
69626;DHT22;56847;51.984;5.088;2024-03-08T08:21:34;7.20;66.10
69626;DHT22;56847;51.984;5.088;2024-03-08T08:24:03;7.30;66.20
69626;DHT22;56847;51.984;5.088;2024-03-08T08:26:30;7.40;65.90
69626;DHT22;56847;51.984;5.088;2024-03-08T08:29:02;7.40;65.70
69626;DHT22;56847;51.984;5.088;2024-03-08T08:31:29;7.50;65.90
69626;DHT22;56847;51.984;5.088;2024-03-08T08:33:57;7.60;65.90
69626;DHT22;56847;51.984;5.088;2024-03-08T08:36:27;7.70;65.70
69626;DHT22;56847;51.984;5.088;2024-03-08T08:38:56;7.80;65.20
69626;DHT22;56847;51.984;5.088;2024-03-08T08:41:25;7.90;65.40
69626;DHT22;56847;51.984;5.088;2024-03-08T08:43:53;7.90;65.00
69626;DHT22;56847;51.984;5.088;2024-03-08T08:46:34;8.00;65.00
69626;DHT22;56847;51.984;5.088;2024-03-08T08:49:07;8.10;65.00
69626;DHT22;56847;51.984;5.088;2024-03-08T08:51:37;8.20;64.90
69626;DHT22;56847;51.984;5.088;2024-03-08T08:54:08;8.30;64.60
69626;DHT22;56847;51.984;5.088;2024-03-08T08:56:38;8.40;64.40
69626;DHT22;56847;51.984;5.088;2024-03-08T08:59:06;8.50;64.20
69626;DHT22;56847;51.984;5.088;2024-03-08T09:01:32;8.50;63.80
69626;DHT22;56847;51.984;5.088;2024-03-08T09:04:00;8.60;64.10
69626;DHT22;56847;51.984;5.088;2024-03-08T09:06:27;8.70;63.90
69626;DHT22;56847;51.984;5.088;2024-03-08T09:08:54;8.80;63.70
69626;DHT22;56847;51.984;5.088;2024-03-08T09:11:20;8.80;63.60
69626;DHT22;56847;51.984;5.088;2024-03-08T09:13:47;8.90;63.80
69626;DHT22;56847;51.984;5.088;2024-03-08T09:16:15;9.10;63.60
69626;DHT22;56847;51.984;5.088;2024-03-08T09:18:42;9.10;63.10
69626;DHT22;56847;51.984;5.088;2024-03-08T09:21:10;9.20;63.30
69626;DHT22;56847;51.984;5.088;2024-03-08T09:23:37;9.40;63.50
69626;DHT22;56847;51.984;5.088;2024-03-08T09:26:04;9.50;63.00
69626;DHT22;56847;51.984;5.088;2024-03-08T09:28:39;9.50;62.00
69626;DHT22;56847;51.984;5.088;2024-03-08T09:31:06;9.60;61.80
69626;DHT22;56847;51.984;5.088;2024-03-08T09:33:35;9.70;61.50
69626;DHT22;56847;51.984;5.088;2024-03-08T09:36:02;9.70;61.40
69626;DHT22;56847;51.984;5.088;2024-03-08T09:38:30;9.80;61.50
69626;DHT22;56847;51.984;5.088;2024-03-08T09:40:57;9.90;60.80
69626;DHT22;56847;51.984;5.088;2024-03-08T09:43:25;9.90;60.30
69626;DHT22;56847;51.984;5.088;2024-03-08T09:45:52;10.00;60.40
69626;DHT22;56847;51.984;5.088;2024-03-08T09:48:20;10.00;60.30
69626;DHT22;56847;51.984;5.088;2024-03-08T09:50:47;10.10;60.60
69626;DHT22;56847;51.984;5.088;2024-03-08T09:53:15;10.20;60.60
69626;DHT22;56847;51.984;5.088;2024-03-08T09:55:43;10.30;59.60
69626;DHT22;56847;51.984;5.088;2024-03-08T09:58:13;10.40;59.50
69626;DHT22;56847;51.984;5.088;2024-03-08T10:00:59;10.40;59.10
69626;DHT22;56847;51.984;5.088;2024-03-08T10:03:31;10.40;59.50
69626;DHT22;56847;51.984;5.088;2024-03-08T10:06:02;10.50;59.40
69626;DHT22;56847;51.984;5.088;2024-03-08T10:08:29;10.60;59.30
69626;DHT22;56847;51.984;5.088;2024-03-08T10:10:56;10.70;58.90
69626;DHT22;56847;51.984;5.088;2024-03-08T10:13:27;10.70;58.80
69626;DHT22;56847;51.984;5.088;2024-03-08T10:15:55;10.70;59.00
69626;DHT22;56847;51.984;5.088;2024-03-08T10:18:22;10.80;59.00
69626;DHT22;56847;51.984;5.088;2024-03-08T10:21:06;10.90;58.50
69626;DHT22;56847;51.984;5.088;2024-03-08T10:23:34;10.90;58.70
69626;DHT22;56847;51.984;5.088;2024-03-08T10:26:15;11.00;58.50
69626;DHT22;56847;51.984;5.088;2024-03-08T10:28:46;11.10;57.90
69626;DHT22;56847;51.984;5.088;2024-03-08T10:31:16;11.10;57.90
69626;DHT22;56847;51.984;5.088;2024-03-08T10:33:46;11.10;57.40
69626;DHT22;56847;51.984;5.088;2024-03-08T10:36:14;11.10;57.20
69626;DHT22;56847;51.984;5.088;2024-03-08T10:38:42;11.20;56.70
69626;DHT22;56847;51.984;5.088;2024-03-08T10:41:15;11.20;56.70
69626;DHT22;56847;51.984;5.088;2024-03-08T10:46:51;11.30;56.50
69626;DHT22;56847;51.984;5.088;2024-03-08T10:49:25;11.20;55.80
69626;DHT22;56847;51.984;5.088;2024-03-08T10:51:56;11.30;56.40
69626;DHT22;56847;51.984;5.088;2024-03-08T10:54:25;11.40;56.70
69626;DHT22;56847;51.984;5.088;2024-03-08T10:56:53;11.50;56.30
69626;DHT22;56847;51.984;5.088;2024-03-08T10:59:22;11.60;56.20
69626;DHT22;56847;51.984;5.088;2024-03-08T11:01:50;11.70;55.80
69626;DHT22;56847;51.984;5.088;2024-03-08T11:04:18;11.80;55.70
69626;DHT22;56847;51.984;5.088;2024-03-08T11:06:51;11.90;55.60
69626;DHT22;56847;51.984;5.088;2024-03-08T11:09:30;12.00;55.00
69626;DHT22;56847;51.984;5.088;2024-03-08T11:12:20;12.00;55.10
69626;DHT22;56847;51.984;5.088;2024-03-08T11:14:51;12.00;54.50
69626;DHT22;56847;51.984;5.088;2024-03-08T11:17:39;12.00;54.30
69626;DHT22;56847;51.984;5.088;2024-03-08T11:20:19;12.10;54.60
69626;DHT22;56847;51.984;5.088;2024-03-08T11:22:52;12.20;54.30
69626;DHT22;56847;51.984;5.088;2024-03-08T11:25:33;12.20;54.00
69626;DHT22;56847;51.984;5.088;2024-03-08T11:28:27;12.20;53.80
69626;DHT22;56847;51.984;5.088;2024-03-08T11:33:31;12.40;54.20
69626;DHT22;56847;51.984;5.088;2024-03-08T11:36:08;12.60;53.70
69626;DHT22;56847;51.984;5.088;2024-03-08T11:38:42;12.70;53.60
69626;DHT22;56847;51.984;5.088;2024-03-08T11:41:10;12.70;53.40
69626;DHT22;56847;51.984;5.088;2024-03-08T11:43:45;12.80;53.30
69626;DHT22;56847;51.984;5.088;2024-03-08T11:46:14;12.90;52.60
69626;DHT22;56847;51.984;5.088;2024-03-08T11:48:43;13.00;52.40
69626;DHT22;56847;51.984;5.088;2024-03-08T11:51:15;13.00;52.20
69626;DHT22;56847;51.984;5.088;2024-03-08T11:53:42;13.00;51.70
69626;DHT22;56847;51.984;5.088;2024-03-08T11:56:14;13.00;51.60
69626;DHT22;56847;51.984;5.088;2024-03-08T11:58:55;13.10;51.90
69626;DHT22;56847;51.984;5.088;2024-03-08T12:01:24;13.30;51.90
69626;DHT22;56847;51.984;5.088;2024-03-08T12:03:56;13.40;51.40
69626;DHT22;56847;51.984;5.088;2024-03-08T12:06:27;13.40;50.60
69626;DHT22;56847;51.984;5.088;2024-03-08T12:09:02;13.30;50.50
69626;DHT22;56847;51.984;5.088;2024-03-08T12:11:29;13.30;49.70
69626;DHT22;56847;51.984;5.088;2024-03-08T12:14:01;13.20;50.10
69626;DHT22;56847;51.984;5.088;2024-03-08T12:16:28;13.20;50.00
69626;DHT22;56847;51.984;5.088;2024-03-08T12:18:55;13.20;50.40
69626;DHT22;56847;51.984;5.088;2024-03-08T12:21:23;13.30;50.20
69626;DHT22;56847;51.984;5.088;2024-03-08T12:24:08;13.30;50.50
69626;DHT22;56847;51.984;5.088;2024-03-08T12:26:37;13.40;50.40
69626;DHT22;56847;51.984;5.088;2024-03-08T12:29:24;13.50;50.10
69626;DHT22;56847;51.984;5.088;2024-03-08T12:31:52;13.50;50.10
69626;DHT22;56847;51.984;5.088;2024-03-08T12:34:21;13.60;50.30
69626;DHT22;56847;51.984;5.088;2024-03-08T12:36:49;13.60;49.80
69626;DHT22;56847;51.984;5.088;2024-03-08T12:39:17;13.60;49.40
69626;DHT22;56847;51.984;5.088;2024-03-08T12:41:49;13.60;49.40
69626;DHT22;56847;51.984;5.088;2024-03-08T12:44:19;13.60;49.20
69626;DHT22;56847;51.984;5.088;2024-03-08T12:46:48;13.60;49.60
69626;DHT22;56847;51.984;5.088;2024-03-08T12:49:19;13.70;49.20
69626;DHT22;56847;51.984;5.088;2024-03-08T12:51:49;13.70;49.20
69626;DHT22;56847;51.984;5.088;2024-03-08T12:54:16;13.70;49.40
69626;DHT22;56847;51.984;5.088;2024-03-08T12:56:46;13.70;49.10
69626;DHT22;56847;51.984;5.088;2024-03-08T12:59:14;13.70;49.40
69626;DHT22;56847;51.984;5.088;2024-03-08T13:01:42;13.70;49.30
69626;DHT22;56847;51.984;5.088;2024-03-08T13:04:15;13.70;48.90
69626;DHT22;56847;51.984;5.088;2024-03-08T13:06:44;13.70;49.00
69626;DHT22;56847;51.984;5.088;2024-03-08T13:09:27;13.70;49.30
69626;DHT22;56847;51.984;5.088;2024-03-08T13:12:06;13.70;49.50
69626;DHT22;56847;51.984;5.088;2024-03-08T13:14:40;13.80;49.40
69626;DHT22;56847;51.984;5.088;2024-03-08T13:17:15;13.80;49.30
69626;DHT22;56847;51.984;5.088;2024-03-08T13:19:43;13.80;49.00
69626;DHT22;56847;51.984;5.088;2024-03-08T13:22:15;13.70;48.10
69626;DHT22;56847;51.984;5.088;2024-03-08T13:24:48;13.60;48.30
69626;DHT22;56847;51.984;5.088;2024-03-08T13:27:20;13.50;48.80
69626;DHT22;56847;51.984;5.088;2024-03-08T13:29:55;13.50;49.00
69626;DHT22;56847;51.984;5.088;2024-03-08T13:32:25;13.50;48.90
69626;DHT22;56847;51.984;5.088;2024-03-08T13:34:53;13.50;48.50
69626;DHT22;56847;51.984;5.088;2024-03-08T13:37:22;13.50;48.60
69626;DHT22;56847;51.984;5.088;2024-03-08T13:39:49;13.50;48.90
69626;DHT22;56847;51.984;5.088;2024-03-08T13:42:16;13.50;48.90
69626;DHT22;56847;51.984;5.088;2024-03-08T13:44:47;13.60;48.60
69626;DHT22;56847;51.984;5.088;2024-03-08T13:47:16;13.60;48.90
69626;DHT22;56847;51.984;5.088;2024-03-08T13:49:51;13.60;48.60
69626;DHT22;56847;51.984;5.088;2024-03-08T13:52:24;13.50;48.60
69626;DHT22;56847;51.984;5.088;2024-03-08T13:54:52;13.50;48.50
69626;DHT22;56847;51.984;5.088;2024-03-08T13:57:21;13.50;47.90
69626;DHT22;56847;51.984;5.088;2024-03-08T13:59:52;13.40;48.00
69626;DHT22;56847;51.984;5.088;2024-03-08T14:02:21;13.40;48.00
69626;DHT22;56847;51.984;5.088;2024-03-08T14:04:50;13.40;48.30
69626;DHT22;56847;51.984;5.088;2024-03-08T14:07:21;13.40;48.60
69626;DHT22;56847;51.984;5.088;2024-03-08T14:09:50;13.40;48.40
69626;DHT22;56847;51.984;5.088;2024-03-08T14:12:22;13.40;47.90
69626;DHT22;56847;51.984;5.088;2024-03-08T14:14:58;13.40;48.20
69626;DHT22;56847;51.984;5.088;2024-03-08T14:17:36;13.40;48.30
69626;DHT22;56847;51.984;5.088;2024-03-08T14:20:03;13.30;48.30
69626;DHT22;56847;51.984;5.088;2024-03-08T14:22:30;13.30;48.60
69626;DHT22;56847;51.984;5.088;2024-03-08T14:24:58;13.30;48.70
69626;DHT22;56847;51.984;5.088;2024-03-08T14:27:28;13.30;48.40
69626;DHT22;56847;51.984;5.088;2024-03-08T14:29:55;13.30;48.40
69626;DHT22;56847;51.984;5.088;2024-03-08T14:32:22;13.30;48.80
69626;DHT22;56847;51.984;5.088;2024-03-08T14:34:50;13.30;49.10
69626;DHT22;56847;51.984;5.088;2024-03-08T14:37:17;13.30;49.10
69626;DHT22;56847;51.984;5.088;2024-03-08T14:39:52;13.30;49.00
69626;DHT22;56847;51.984;5.088;2024-03-08T14:42:22;13.30;49.00
69626;DHT22;56847;51.984;5.088;2024-03-08T14:44:51;13.20;49.20
69626;DHT22;56847;51.984;5.088;2024-03-08T14:47:20;13.30;49.10
69626;DHT22;56847;51.984;5.088;2024-03-08T14:49:52;13.20;48.90
69626;DHT22;56847;51.984;5.088;2024-03-08T14:52:19;13.10;49.30
69626;DHT22;56847;51.984;5.088;2024-03-08T14:54:56;13.10;49.20
69626;DHT22;56847;51.984;5.088;2024-03-08T14:57:23;13.10;49.20
69626;DHT22;56847;51.984;5.088;2024-03-08T14:59:50;13.00;49.50
69626;DHT22;56847;51.984;5.088;2024-03-08T15:02:17;13.00;49.50
69626;DHT22;56847;51.984;5.088;2024-03-08T15:04:51;13.00;49.60
69626;DHT22;56847;51.984;5.088;2024-03-08T15:07:24;13.00;49.60
69626;DHT22;56847;51.984;5.088;2024-03-08T15:09:57;13.00;49.50
69626;DHT22;56847;51.984;5.088;2024-03-08T15:12:24;12.90;49.50
69626;DHT22;56847;51.984;5.088;2024-03-08T15:14:53;12.90;49.90
69626;DHT22;56847;51.984;5.088;2024-03-08T15:17:22;12.90;49.80
69626;DHT22;56847;51.984;5.088;2024-03-08T15:19:50;12.90;49.80
69626;DHT22;56847;51.984;5.088;2024-03-08T15:22:18;12.90;49.90
69626;DHT22;56847;51.984;5.088;2024-03-08T15:24:45;12.90;50.00
69626;DHT22;56847;51.984;5.088;2024-03-08T15:27:12;12.90;50.20
69626;DHT22;56847;51.984;5.088;2024-03-08T15:29:39;12.90;50.20
69626;DHT22;56847;51.984;5.088;2024-03-08T15:32:06;12.90;50.20
69626;DHT22;56847;51.984;5.088;2024-03-08T15:34:36;12.90;50.10
69626;DHT22;56847;51.984;5.088;2024-03-08T15:37:24;12.80;50.10
69626;DHT22;56847;51.984;5.088;2024-03-08T15:40:10;12.80;50.30
69626;DHT22;56847;51.984;5.088;2024-03-08T15:42:57;12.80;50.20
69626;DHT22;56847;51.984;5.088;2024-03-08T15:45:26;12.80;50.30
69626;DHT22;56847;51.984;5.088;2024-03-08T15:48:01;12.80;50.20
69626;DHT22;56847;51.984;5.088;2024-03-08T15:50:33;12.80;50.20
69626;DHT22;56847;51.984;5.088;2024-03-08T15:53:11;12.80;50.40
69626;DHT22;56847;51.984;5.088;2024-03-08T15:56:03;12.80;50.30
69626;DHT22;56847;51.984;5.088;2024-03-08T15:58:46;12.80;50.40
69626;DHT22;56847;51.984;5.088;2024-03-08T16:01:21;12.80;50.50
69626;DHT22;56847;51.984;5.088;2024-03-08T16:03:49;12.80;50.80
69626;DHT22;56847;51.984;5.088;2024-03-08T16:06:18;12.80;50.90
69626;DHT22;56847;51.984;5.088;2024-03-08T16:08:49;12.70;50.80
69626;DHT22;56847;51.984;5.088;2024-03-08T17:09:04;12.10;52.30
69626;DHT22;56847;51.984;5.088;2024-03-08T17:11:41;12.10;52.20
69626;DHT22;56847;51.984;5.088;2024-03-08T17:14:08;12.00;52.30
69626;DHT22;56847;51.984;5.088;2024-03-08T17:16:35;12.00;52.40
69626;DHT22;56847;51.984;5.088;2024-03-08T17:19:04;11.90;52.70
69626;DHT22;56847;51.984;5.088;2024-03-08T17:21:33;11.90;52.60
69626;DHT22;56847;51.984;5.088;2024-03-08T17:24:00;11.80;52.80
69626;DHT22;56847;51.984;5.088;2024-03-08T17:26:28;11.80;52.90
69626;DHT22;56847;51.984;5.088;2024-03-08T17:28:55;11.70;53.00
69626;DHT22;56847;51.984;5.088;2024-03-08T17:31:23;11.70;53.10
69626;DHT22;56847;51.984;5.088;2024-03-08T17:33:50;11.70;52.90
69626;DHT22;56847;51.984;5.088;2024-03-08T17:36:18;11.60;53.10
69626;DHT22;56847;51.984;5.088;2024-03-08T17:38:46;11.50;53.20
69626;DHT22;56847;51.984;5.088;2024-03-08T17:41:16;11.50;53.20
69626;DHT22;56847;51.984;5.088;2024-03-08T17:43:51;11.40;53.30
69626;DHT22;56847;51.984;5.088;2024-03-08T17:46:18;11.40;53.40
69626;DHT22;56847;51.984;5.088;2024-03-08T17:48:46;11.40;53.50
69626;DHT22;56847;51.984;5.088;2024-03-08T17:51:13;11.30;53.60
69626;DHT22;56847;51.984;5.088;2024-03-08T17:53:40;11.30;53.60
69626;DHT22;56847;51.984;5.088;2024-03-08T17:56:08;11.20;53.70
69626;DHT22;56847;51.984;5.088;2024-03-08T17:58:35;11.20;53.70
69626;DHT22;56847;51.984;5.088;2024-03-08T18:01:02;11.20;53.80
69626;DHT22;56847;51.984;5.088;2024-03-08T18:03:30;11.10;53.90